Time;durP1;ratioP1;P1;durP2;ratioP2;P2;SDS_P1;SDS_P2;PMS_P1;PMS_P2;Temp;Humidity;BMP_temperature;BMP_pressure;BME280_temperature;BME280_humidity;BME280_pressure;Samples;Min_cycle;Max_cycle;Signal;HPM_P1;HPM_P2
2022/02/19 07:01:33;;;;;;;18.77;2.22;;;;;;;;;;5372334;23;20405;-85
2022/02/19 07:04:00;;;;;;;25.10;2.58;;;;;;;;;;4912742;29;20083;-86
2022/02/19 07:06:26;;;;;;;17.73;3.60;;;;;;;;;;4911145;29;20087;-86
2022/02/19 07:08:53;;;;;;;19.95;2.58;;;;;;;;;;4912099;29;20044;-87
2022/02/19 07:11:20;;;;;;;18.95;3.25;;;;;;;;;;4913464;29;20052;-86
2022/02/19 07:13:46;;;;;;;21.17;2.53;;;;;;;;;;4911277;29;20551;-86
2022/02/19 07:16:13;;;;;;;15.75;2.53;;;;;;;;;;4910805;29;20048;-87
2022/02/19 07:18:40;;;;;;;19.23;2.45;;;;;;;;;;4911837;29;20048;-86
2022/02/19 07:21:07;;;;;;;17.85;2.50;;;;;;;;;;4911046;29;20453;-85
2022/02/19 07:23:33;;;;;;;25.25;2.63;;;;;;;;;;4912636;29;20424;-86
2022/02/19 07:26:00;;;;;;;19.42;2.47;;;;;;;;;;4913340;29;20052;-85
2022/02/19 07:28:27;;;;;;;18.65;2.33;;;;;;;;;;4911574;29;20067;-86
2022/02/19 07:30:53;;;;;;;19.52;2.42;;;;;;;;;;4910727;29;20055;-86
2022/02/19 07:33:20;;;;;;;19.98;2.63;;;;;;;;;;4910339;29;20051;-85
2022/02/19 07:35:47;;;;;;;32.75;2.78;;;;;;;;;;4910362;29;20127;-85
2022/02/19 07:38:14;;;;;;;23.65;3.17;;;;;;;;;;4896142;29;20056;-86
2022/02/19 07:40:40;;;;;;;27.70;3.60;;;;;;;;;;4910360;29;20044;-86
2022/02/19 07:43:07;;;;;;;22.13;3.15;;;;;;;;;;4909652;29;20076;-86
2022/02/19 07:45:34;;;;;;;24.65;4.22;;;;;;;;;;4912508;29;20509;-86
2022/02/19 07:48:00;;;;;;;17.23;3.28;;;;;;;;;;4911531;29;20357;-86
2022/02/19 07:58:42;;;;;;;23.20;3.50;;;;;;;;;;4911732;29;20509;-86
2022/02/19 08:01:11;;;;;;;22.65;5.95;;;;;;;;;;4903407;29;20505;-85
2022/02/19 08:03:38;;;;;;;30.02;5.53;;;;;;;;;;4895501;29;20486;-86
2022/02/19 08:06:04;;;;;;;22.77;5.53;;;;;;;;;;4894801;29;20049;-86
2022/02/19 08:08:33;;;;;;;26.02;5.47;;;;;;;;;;4897909;29;20059;-86
2022/02/19 08:11:00;;;;;;;21.07;4.77;;;;;;;;;;4903325;29;20060;-86
2022/02/19 08:13:27;;;;;;;20.52;3.03;;;;;;;;;;4901167;29;20049;-86
2022/02/19 08:15:55;;;;;;;19.25;2.75;;;;;;;;;;4900826;29;20052;-85
2022/02/19 08:18:22;;;;;;;22.70;3.13;;;;;;;;;;4899719;29;20501;-85
2022/02/19 08:20:51;;;;;;;19.83;3.22;;;;;;;;;;4895503;29;20096;-86
2022/02/19 08:23:20;;;;;;;23.35;3.28;;;;;;;;;;4910484;29;20572;-86
2022/02/19 08:25:54;;;;;;;22.10;2.85;;;;;;;;;;4886743;29;20084;-87
2022/02/19 08:28:21;;;;;;;20.30;2.88;;;;;;;;;;4898424;29;20057;-86
2022/02/19 08:30:49;;;;;;;23.80;2.70;;;;;;;;;;4899797;29;20049;-85
2022/02/19 08:33:16;;;;;;;25.48;3.67;;;;;;;;;;4899311;29;20051;-86
2022/02/19 08:35:43;;;;;;;20.80;2.50;;;;;;;;;;4866799;29;20045;-86
2022/02/19 08:38:13;;;;;;;23.92;2.35;;;;;;;;;;4902979;29;20052;-84
2022/02/19 08:40:41;;;;;;;16.00;2.17;;;;;;;;;;4899095;29;20048;-86
2022/02/19 08:43:08;;;;;;;23.85;3.03;;;;;;;;;;4900598;29;20048;-86
2022/02/19 08:45:35;;;;;;;18.85;2.85;;;;;;;;;;4900055;29;20044;-86
2022/02/19 08:48:04;;;;;;;19.88;2.45;;;;;;;;;;4897393;29;20514;-87
2022/02/19 08:50:37;;;;;;;23.67;2.50;;;;;;;;;;4897385;29;20045;-87
2022/02/19 08:53:07;;;;;;;25.33;2.95;;;;;;;;;;4900678;29;20048;-89
2022/02/19 08:55:35;;;;;;;17.77;2.83;;;;;;;;;;4895700;29;20052;-86
2022/02/19 08:58:02;;;;;;;23.17;2.83;;;;;;;;;;4888573;29;20056;-86
2022/02/19 09:00:29;;;;;;;20.77;2.97;;;;;;;;;;4887285;29;20048;-86
2022/02/19 09:02:56;;;;;;;22.17;2.38;;;;;;;;;;4889848;29;20045;-86
2022/02/19 09:05:23;;;;;;;18.90;2.40;;;;;;;;;;4880187;29;20112;-86
2022/02/19 09:07:50;;;;;;;13.63;2.22;;;;;;;;;;4900711;29;20072;-88
2022/02/19 09:10:17;;;;;;;16.73;3.00;;;;;;;;;;4899551;29;20052;-88
2022/02/19 09:12:49;;;;;;;13.20;2.17;;;;;;;;;;4902437;29;20044;-87
2022/02/19 09:15:22;;;;;;;16.48;2.25;;;;;;;;;;4886672;29;20055;-87
2022/02/19 09:17:50;;;;;;;18.30;2.47;;;;;;;;;;4887072;29;20414;-87
2022/02/19 09:20:19;;;;;;;22.20;2.65;;;;;;;;;;4892813;29;20059;-86
2022/02/19 09:22:46;;;;;;;14.52;2.25;;;;;;;;;;4905196;29;20067;-87
2022/02/19 09:25:13;;;;;;;16.90;3.40;;;;;;;;;;4903176;29;20052;-85
2022/02/19 09:27:41;;;;;;;13.60;2.40;;;;;;;;;;4898616;29;20107;-88
2022/02/19 09:30:09;;;;;;;27.05;3.63;;;;;;;;;;4890521;29;20509;-87
2022/02/19 09:32:36;;;;;;;22.33;2.78;;;;;;;;;;4905343;29;20061;-89
2022/02/19 09:35:05;;;;;;;18.17;2.35;;;;;;;;;;4908956;29;20048;-88
2022/02/19 09:37:32;;;;;;;22.25;2.92;;;;;;;;;;4902492;29;20413;-87
2022/02/19 09:40:02;;;;;;;22.45;2.53;;;;;;;;;;4901462;29;20052;-87
2022/02/19 09:42:28;;;;;;;21.40;3.13;;;;;;;;;;4903535;29;20068;-87
2022/02/19 09:44:56;;;;;;;23.75;3.15;;;;;;;;;;4892296;29;20045;-87
2022/02/19 09:47:26;;;;;;;15.20;2.67;;;;;;;;;;4901308;29;20045;-86
2022/02/19 09:49:54;;;;;;;17.23;2.50;;;;;;;;;;4905839;29;20060;-87
2022/02/19 09:52:25;;;;;;;11.88;1.90;;;;;;;;;;4881326;29;20103;-86
2022/02/19 09:54:56;;;;;;;18.42;2.63;;;;;;;;;;4882896;29;20512;-87
2022/02/19 09:57:23;;;;;;;19.75;2.75;;;;;;;;;;4897060;29;20048;-86
2022/02/19 09:59:50;;;;;;;14.20;2.42;;;;;;;;;;4905423;29;20139;-87
2022/02/19 10:02:17;;;;;;;16.38;2.25;;;;;;;;;;4889333;29;20103;-87
2022/02/19 10:04:44;;;;;;;15.85;2.38;;;;;;;;;;4896538;29;20059;-85
2022/02/19 10:07:17;;;;;;;24.98;2.90;;;;;;;;;;4913316;29;20260;-84
2022/02/19 10:09:49;;;;;;;16.42;2.63;;;;;;;;;;4908824;29;20044;-86
2022/02/19 10:12:17;;;;;;;15.52;2.85;;;;;;;;;;4911388;29;20509;-90
2022/02/19 10:14:44;;;;;;;14.20;2.88;;;;;;;;;;4896044;29;20048;-90
2022/02/19 10:17:22;;;;;;;16.23;2.60;;;;;;;;;;4897101;29;20055;-88
2022/02/19 10:20:04;;;;;;;15.60;2.30;;;;;;;;;;4911042;29;20074;-89
2022/02/19 10:22:42;;;;;;;19.83;3.50;;;;;;;;;;4909963;29;20055;-88
2022/02/19 10:25:11;;;;;;;12.65;2.08;;;;;;;;;;4898604;29;20048;-90
2022/02/19 10:27:46;;;;;;;13.65;2.58;;;;;;;;;;4910855;29;20139;-88
2022/02/19 10:30:19;;;;;;;19.50;2.00;;;;;;;;;;4910001;29;20217;-90
2022/02/19 10:33:03;;;;;;;12.60;1.90;;;;;;;;;;4907024;29;20051;-92
2022/02/19 10:35:37;;;;;;;16.33;2.22;;;;;;;;;;4909530;29;20500;-85
2022/02/19 10:38:08;;;;;;;16.85;2.90;;;;;;;;;;4905812;29;20420;-91
2022/02/19 10:40:39;;;;;;;16.20;2.20;;;;;;;;;;4905545;29;20048;-87
2022/02/19 10:43:08;;;;;;;20.58;2.35;;;;;;;;;;4901485;29;20044;-87
2022/02/19 10:45:49;;;;;;;16.00;2.47;;;;;;;;;;4900172;29;20048;-88
2022/02/19 10:48:21;;;;;;;18.25;1.83;;;;;;;;;;4897053;29;20049;-88
2022/02/19 10:50:48;;;;;;;10.50;1.98;;;;;;;;;;4904281;29;20107;-90
2022/02/19 10:53:25;;;;;;;20.02;3.92;;;;;;;;;;4902429;29;20141;-89
2022/02/19 10:55:54;;;;;;;14.00;2.30;;;;;;;;;;4884659;29;20982;-88
2022/02/19 10:58:21;;;;;;;16.17;2.55;;;;;;;;;;4901814;29;20051;-87
2022/02/19 11:00:48;;;;;;;15.35;2.47;;;;;;;;;;4896418;29;20052;-87
2022/02/19 11:03:16;;;;;;;16.10;2.17;;;;;;;;;;4877912;29;20221;-86
2022/02/19 11:05:43;;;;;;;18.55;2.00;;;;;;;;;;4880840;29;20056;-88
2022/02/19 11:08:10;;;;;;;20.05;2.22;;;;;;;;;;4880699;29;20136;-88
2022/02/19 11:10:38;;;;;;;15.65;2.65;;;;;;;;;;4874154;29;20072;-85
2022/02/19 11:13:05;;;;;;;19.27;2.88;;;;;;;;;;4889689;29;20048;-88
2022/02/19 11:15:32;;;;;;;19.90;2.72;;;;;;;;;;4868469;29;20562;-89
2022/02/19 11:18:04;;;;;;;19.00;2.63;;;;;;;;;;4887968;29;20053;-90
2022/02/19 11:20:31;;;;;;;17.58;2.67;;;;;;;;;;4874377;29;20060;-89
2022/02/19 11:22:59;;;;;;;16.48;3.00;;;;;;;;;;4877434;29;20109;-89
2022/02/19 11:25:28;;;;;;;18.30;2.77;;;;;;;;;;4892274;29;20540;-89
2022/02/19 11:28:00;;;;;;;21.17;3.00;;;;;;;;;;4877695;29;20080;-89
2022/02/19 11:30:30;;;;;;;15.70;1.98;;;;;;;;;;4890902;29;20132;-88
2022/02/19 11:32:58;;;;;;;20.70;3.42;;;;;;;;;;4890144;29;20052;-87
2022/02/19 11:35:37;;;;;;;25.85;3.03;;;;;;;;;;4891487;29;20048;-86
2022/02/19 11:38:22;;;;;;;22.27;2.55;;;;;;;;;;4894293;29;20390;-87
2022/02/19 11:40:55;;;;;;;18.88;3.30;;;;;;;;;;4889239;29;20044;-87
2022/02/19 11:43:44;;;;;;;26.42;3.03;;;;;;;;;;4873015;29;20048;-87
2022/02/19 11:46:34;;;;;;;23.42;3.45;;;;;;;;;;4885968;29;20049;-86
2022/02/19 11:49:23;;;;;;;18.30;3.00;;;;;;;;;;4889688;29;20127;-87
2022/02/19 11:52:05;;;;;;;28.10;3.45;;;;;;;;;;4872295;29;20057;-88
2022/02/19 11:54:52;;;;;;;23.92;2.53;;;;;;;;;;4880641;29;20121;-88
2022/02/19 11:57:24;;;;;;;18.13;2.65;;;;;;;;;;4881335;29;20056;-86
2022/02/19 11:59:53;;;;;;;16.85;2.95;;;;;;;;;;4883429;29;20052;-89
2022/02/19 12:02:27;;;;;;;21.15;3.22;;;;;;;;;;4866212;29;20051;-91
2022/02/19 12:05:17;;;;;;;30.02;4.22;;;;;;;;;;4889613;29;20072;-94
2022/02/19 12:08:04;;;;;;;17.42;3.58;;;;;;;;;;4889071;29;20111;-92
2022/02/19 12:10:37;;;;;;;23.08;2.92;;;;;;;;;;4887543;29;20056;-89
2022/02/19 12:13:12;;;;;;;20.95;3.05;;;;;;;;;;4882277;29;20155;-91
2022/02/19 12:15:40;;;;;;;25.35;4.53;;;;;;;;;;4883699;29;20049;-91
2022/02/19 12:18:11;;;;;;;23.90;4.30;;;;;;;;;;4886882;29;20089;-88
2022/02/19 12:20:40;;;;;;;39.95;5.15;;;;;;;;;;4885205;29;20188;-87
2022/02/19 12:23:10;;;;;;;30.35;4.78;;;;;;;;;;4883540;29;20128;-89
2022/02/19 12:25:57;;;;;;;34.72;5.57;;;;;;;;;;4880594;29;20470;-91
2022/02/19 12:28:24;;;;;;;34.83;3.90;;;;;;;;;;4879546;29;20164;-91
2022/02/19 12:31:13;;;;;;;24.65;4.30;;;;;;;;;;4886179;29;21585;-90
2022/02/19 12:33:43;;;;;;;32.80;3.40;;;;;;;;;;4869685;29;20108;-88
2022/02/19 12:36:11;;;;;;;28.73;3.53;;;;;;;;;;4888333;29;20567;-91
2022/02/19 12:38:47;;;;;;;24.60;3.53;;;;;;;;;;4886151;29;20058;-91
2022/02/19 12:41:14;;;;;;;23.63;3.17;;;;;;;;;;4883133;29;20928;-91
2022/02/19 12:44:00;;;;;;;23.23;3.55;;;;;;;;;;4889064;29;20052;-90
2022/02/19 12:46:29;;;;;;;27.25;4.10;;;;;;;;;;4879300;29;20063;-88
2022/02/19 12:48:56;;;;;;;32.15;4.07;;;;;;;;;;4888466;29;20045;-90
2022/02/19 12:51:26;;;;;;;35.95;4.20;;;;;;;;;;4888927;29;20048;-93
2022/02/19 12:53:53;;;;;;;29.48;3.30;;;;;;;;;;4871876;29;20049;-90
2022/02/19 12:56:20;;;;;;;25.65;4.78;;;;;;;;;;4874586;29;20044;-90
2022/02/19 12:58:48;;;;;;;36.28;7.43;;;;;;;;;;4888603;29;20065;-88
2022/02/19 13:01:15;;;;;;;32.77;6.70;;;;;;;;;;4864670;29;20053;-88
2022/02/19 13:03:44;;;;;;;43.20;6.93;;;;;;;;;;4865485;29;20048;-89
2022/02/19 13:06:11;;;;;;;;;;;;;;;;;;4888044;29;20421;-87
2022/02/19 13:08:38;;;;;;;31.23;4.38;;;;;;;;;;4893734;29;20517;-89
2022/02/19 13:11:07;;;;;;;25.27;3.47;;;;;;;;;;4896576;29;20033;-91
2022/02/19 13:13:38;;;;;;;24.25;4.18;;;;;;;;;;4895834;29;20045;-90
2022/02/19 13:16:07;;;;;;;27.15;3.55;;;;;;;;;;4896992;29;20151;-90
2022/02/19 13:18:41;;;;;;;31.02;6.22;;;;;;;;;;4884311;29;20048;-90
2022/02/19 13:21:15;;;;;;;39.92;6.22;;;;;;;;;;4893433;29;20052;-88
2022/02/19 13:23:47;;;;;;;30.10;3.70;;;;;;;;;;4894926;29;20037;-89
2022/02/19 13:26:31;;;;;;;31.25;5.07;;;;;;;;;;4907510;29;20584;-89
2022/02/19 13:29:01;;;;;;;25.65;3.47;;;;;;;;;;4900498;29;20052;-90
2022/02/19 13:31:29;;;;;;;29.55;4.00;;;;;;;;;;4878635;29;20127;-88
2022/02/19 13:33:56;;;;;;;25.98;4.28;;;;;;;;;;4899291;29;20461;-89
2022/02/19 13:36:24;;;;;;;25.20;3.50;;;;;;;;;;4880781;29;20506;-86
2022/02/19 13:38:51;;;;;;;30.13;4.60;;;;;;;;;;4897146;29;20502;-87
2022/02/19 13:41:18;;;;;;;30.83;3.42;;;;;;;;;;4893018;29;20059;-89
2022/02/19 13:43:58;;;;;;;31.73;3.65;;;;;;;;;;4893518;29;20494;-88
2022/02/19 13:46:27;;;;;;;26.05;3.88;;;;;;;;;;4893626;29;20139;-89
2022/02/19 13:48:55;;;;;;;;;;;;;;;;;;4894745;29;20056;-87
2022/02/19 13:51:33;;;;;;;33.80;4.53;;;;;;;;;;4884650;29;19923;-85
2022/02/19 13:54:17;;;;;;;30.33;3.53;;;;;;;;;;4892368;29;20138;-86
2022/02/19 13:56:45;;;;;;;35.80;3.90;;;;;;;;;;4895201;29;20057;-86
2022/02/19 13:59:31;;;;;;;40.80;4.05;;;;;;;;;;4881202;29;20155;-86
2022/02/19 14:01:58;;;;;;;37.45;4.15;;;;;;;;;;4903617;29;20056;-88
2022/02/19 14:04:33;;;;;;;37.35;4.15;;;;;;;;;;4885117;29;20048;-88
2022/02/19 14:07:08;;;;;;;42.22;3.80;;;;;;;;;;4898844;29;20048;-86
2022/02/19 14:09:35;;;;;;;32.20;3.88;;;;;;;;;;4895948;29;20040;-86
2022/02/19 14:12:02;;;;;;;24.98;3.35;;;;;;;;;;4894340;29;20048;-87
2022/02/19 14:14:38;;;;;;;22.25;3.40;;;;;;;;;;4875112;29;20056;-86
2022/02/19 14:17:09;;;;;;;42.10;4.78;;;;;;;;;;4879322;29;20148;-88
2022/02/19 14:19:37;;;;;;;29.75;4.03;;;;;;;;;;4879586;29;20930;-88
2022/02/19 14:22:11;;;;;;;34.83;4.22;;;;;;;;;;4899001;29;20048;-89
2022/02/19 14:25:01;;;;;;;33.00;4.30;;;;;;;;;;4891841;29;20052;-92
2022/02/19 14:27:29;;;;;;;34.60;4.53;;;;;;;;;;4892558;29;20048;-94
2022/02/19 14:29:57;;;;;;;37.08;5.55;;;;;;;;;;4890372;29;20040;-93
2022/02/19 14:32:25;;;;;;;39.55;7.72;;;;;;;;;;4898132;29;20438;-88
2022/02/19 14:34:52;;;;;;;43.53;4.78;;;;;;;;;;4885243;29;20056;-89
2022/02/19 14:37:20;;;;;;;31.75;3.67;;;;;;;;;;4875048;29;20053;-90
2022/02/19 14:39:47;;;;;;;23.65;3.65;;;;;;;;;;4894196;29;20060;-93
2022/02/19 14:42:19;;;;;;;32.38;7.10;;;;;;;;;;4901136;29;20052;-93
2022/02/19 14:44:46;;;;;;;30.98;4.10;;;;;;;;;;4887367;29;20114;-92
2022/02/19 14:47:13;;;;;;;48.63;11.57;;;;;;;;;;4905090;29;20074;-94
2022/02/19 14:49:42;;;;;;;75.90;39.00;;;;;;;;;;4883133;29;20147;-94
2022/02/19 14:52:09;;;;;;;202.85;112.50;;;;;;;;;;4900870;29;20104;-94
2022/02/19 14:54:49;;;;;;;55.28;25.35;;;;;;;;;;4886084;29;20048;-96
2022/02/19 14:57:17;;;;;;;36.03;4.75;;;;;;;;;;4900453;29;20064;-95
2022/02/19 14:59:46;;;;;;;22.95;4.40;;;;;;;;;;4890037;29;20044;-94
2022/02/19 15:02:33;;;;;;;58.58;23.38;;;;;;;;;;4872222;29;20052;-94
2022/02/19 15:05:02;;;;;;;35.97;10.05;;;;;;;;;;4921396;29;20056;-94
2022/02/19 15:07:43;;;;;;;41.03;8.57;;;;;;;;;;4898306;29;20047;-95
2022/02/19 15:10:12;;;;;;;84.03;31.58;;;;;;;;;;4904709;29;20139;-95
2022/02/19 15:12:39;;;;;;;29.67;5.20;;;;;;;;;;4907414;29;20052;-94
2022/02/19 15:15:06;;;;;;;17.98;3.47;;;;;;;;;;4916181;29;20048;-90
2022/02/19 15:17:46;;;;;;;18.65;3.83;;;;;;;;;;4916443;29;20056;-91
2022/02/19 15:20:18;;;;;;;45.47;11.45;;;;;;;;;;4911415;29;20056;-92
2022/02/19 15:22:45;;;;;;;24.38;5.00;;;;;;;;;;4918750;29;20063;-91
2022/02/19 15:25:16;;;;;;;26.25;4.07;;;;;;;;;;4906761;29;20071;-91
2022/02/19 15:27:44;;;;;;;35.15;6.25;;;;;;;;;;4914134;29;20143;-89
2022/02/19 15:30:12;;;;;;;28.53;3.17;;;;;;;;;;4894445;29;20041;-90
2022/02/19 15:32:40;;;;;;;;;;;;;;;;;;4905978;29;20052;-91
2022/02/19 15:35:09;;;;;;;35.83;4.63;;;;;;;;;;4910119;29;20387;-95
2022/02/19 15:37:38;;;;;;;49.13;7.45;;;;;;;;;;4920406;29;20468;-92
2022/02/19 15:40:07;;;;;;;47.17;6.68;;;;;;;;;;4896896;29;20059;-96
2022/02/19 15:42:39;;;;;;;48.58;8.25;;;;;;;;;;4901620;29;20114;-96
2022/02/19 15:45:09;;;;;;;52.22;9.85;;;;;;;;;;4915866;29;20048;-93
2022/02/19 15:47:39;;;;;;;42.35;5.30;;;;;;;;;;4895760;29;20047;-96
2022/02/19 15:50:08;;;;;;;51.17;6.95;;;;;;;;;;4912512;29;20111;-94
2022/02/19 15:52:36;;;;;;;52.20;5.60;;;;;;;;;;4908023;29;20056;-96
2022/02/19 15:55:04;;;;;;;53.63;7.07;;;;;;;;;;4909325;29;20044;-95
2022/02/19 15:57:32;;;;;;;57.75;7.47;;;;;;;;;;4895518;29;20048;-93
2022/02/19 15:59:58;;;;;;;51.13;5.55;;;;;;;;;;4906157;29;20048;-91
2022/02/19 16:02:26;;;;;;;60.25;6.05;;;;;;;;;;4886346;29;20065;-91
2022/02/19 16:04:53;;;;;;;57.55;5.57;;;;;;;;;;4880976;29;20053;-94
2022/02/19 16:07:20;;;;;;;52.38;6.30;;;;;;;;;;4868890;29;20048;-93
2022/02/19 16:09:47;;;;;;;63.05;8.05;;;;;;;;;;4885240;29;20108;-92
2022/02/19 16:12:14;;;;;;;57.97;6.13;;;;;;;;;;4873697;29;20058;-95
2022/02/19 16:14:41;;;;;;;51.70;6.45;;;;;;;;;;4869560;29;20049;-92
2022/02/19 16:17:09;;;;;;;61.67;7.20;;;;;;;;;;4891403;29;20044;-93
2022/02/19 16:19:36;;;;;;;56.63;7.30;;;;;;;;;;4873001;29;20108;-92
2022/02/19 16:22:04;;;;;;;54.80;6.70;;;;;;;;;;4873433;29;20157;-92
2022/02/19 16:24:54;;;;;;;57.30;7.55;;;;;;;;;;4875794;29;20063;-91
2022/02/19 16:27:21;;;;;;;60.30;8.60;;;;;;;;;;4864558;29;20569;-89
2022/02/19 16:29:48;;;;;;;71.45;8.00;;;;;;;;;;4883189;29;20057;-92
2022/02/19 16:32:15;;;;;;;64.10;7.15;;;;;;;;;;4890755;29;20079;-94
2022/02/19 16:34:43;;;;;;;71.78;7.68;;;;;;;;;;4876836;29;20413;-91
2022/02/19 16:37:10;;;;;;;75.25;8.52;;;;;;;;;;4879565;29;20041;-93
2022/02/19 16:39:36;;;;;;;61.95;7.32;;;;;;;;;;4883804;29;20591;-93
2022/02/19 16:42:05;;;;;;;59.22;7.95;;;;;;;;;;4870563;29;20049;-93
2022/02/19 16:44:32;;;;;;;69.57;8.27;;;;;;;;;;4901491;29;20128;-93
2022/02/19 16:46:59;;;;;;;74.47;9.48;;;;;;;;;;4882538;29;20135;-94
2022/02/19 16:49:25;;;;;;;67.40;8.82;;;;;;;;;;4881097;29;20059;-92
2022/02/19 16:51:53;;;;;;;70.85;13.07;;;;;;;;;;4906367;29;20048;-93
2022/02/19 16:54:19;;;;;;;74.40;9.10;;;;;;;;;;4898614;29;20093;-94
2022/02/19 16:56:47;;;;;;;72.68;9.35;;;;;;;;;;4872507;29;20057;-93
2022/02/19 16:59:15;;;;;;;64.38;7.70;;;;;;;;;;4884272;29;20052;-90
2022/02/19 17:01:46;;;;;;;81.47;7.93;;;;;;;;;;4896748;29;20150;-95
2022/02/19 17:04:13;;;;;;;65.90;8.27;;;;;;;;;;4895486;29;20514;-88
2022/02/19 17:06:40;;;;;;;76.07;8.55;;;;;;;;;;4879583;29;20052;-90
2022/02/19 17:09:07;;;;;;;70.88;8.55;;;;;;;;;;4893143;29;20057;-87
2022/02/19 17:11:36;;;;;;;68.05;7.88;;;;;;;;;;4876593;29;20505;-86
2022/02/19 17:14:03;;;;;;;;;;;;;;;;;;4892180;29;20056;-93
2022/02/19 17:16:29;;;;;;;60.40;6.47;;;;;;;;;;4890578;29;19932;-89
2022/02/19 17:18:56;;;;;;;73.93;8.02;;;;;;;;;;4893189;29;20053;-89
2022/02/19 17:21:23;;;;;;;67.97;8.95;;;;;;;;;;4892176;29;20040;-88
2022/02/19 17:23:51;;;;;;;73.47;9.43;;;;;;;;;;4895802;29;20113;-89
2022/02/19 17:26:22;;;;;;;73.85;9.77;;;;;;;;;;4895338;29;20505;-87
2022/02/19 17:28:49;;;;;;;74.50;10.30;;;;;;;;;;4895498;29;20056;-88
2022/02/19 17:31:15;;;;;;;76.05;10.23;;;;;;;;;;4893713;29;20101;-87
2022/02/19 17:33:43;;;;;;;76.53;10.27;;;;;;;;;;4892560;29;20084;-91
2022/02/19 17:36:09;;;;;;;72.30;9.77;;;;;;;;;;4892244;29;20123;-89
2022/02/19 17:38:36;;;;;;;69.05;8.35;;;;;;;;;;4877695;29;20061;-91
2022/02/19 17:41:03;;;;;;;69.38;8.80;;;;;;;;;;4893273;29;20060;-89
2022/02/19 17:43:30;;;;;;;76.45;7.72;;;;;;;;;;4884093;29;20104;-94
2022/02/19 17:45:57;;;;;;;65.25;8.68;;;;;;;;;;4880830;29;20048;-92
2022/02/19 17:48:24;;;;;;;74.72;9.43;;;;;;;;;;4880268;29;20061;-91
2022/02/19 17:50:50;;;;;;;93.82;12.00;;;;;;;;;;4879936;29;20135;-93
2022/02/19 17:53:17;;;;;;;75.78;10.30;;;;;;;;;;4911188;29;20056;-93
2022/02/19 17:55:45;;;;;;;84.38;11.00;;;;;;;;;;4894942;29;20056;-95
2022/02/19 17:58:13;;;;;;;98.50;13.00;;;;;;;;;;4881483;29;20056;-95
2022/02/19 18:00:40;;;;;;;82.40;9.52;;;;;;;;;;4894795;29;20052;-93
2022/02/19 18:03:08;;;;;;;70.55;8.85;;;;;;;;;;4892174;29;20044;-94
2022/02/19 18:05:35;;;;;;;99.05;9.75;;;;;;;;;;4896537;29;20064;-91
2022/02/19 18:08:03;;;;;;;79.75;8.57;;;;;;;;;;4899319;29;20426;-91
2022/02/19 18:10:32;;;;;;;72.97;8.68;;;;;;;;;;4879519;29;20052;-89
2022/02/19 18:13:01;;;;;;;78.63;11.87;;;;;;;;;;4881993;29;20101;-91
2022/02/19 18:15:28;;;;;;;;;;;;;;;;;;4895237;29;20049;-89
2022/02/19 18:17:55;;;;;;;84.95;12.20;;;;;;;;;;4898389;29;19960;-91
2022/02/19 18:20:23;;;;;;;86.50;16.52;;;;;;;;;;4896031;29;20049;-91
2022/02/19 18:22:50;;;;;;;88.38;9.95;;;;;;;;;;4887970;29;20053;-89
2022/02/19 18:25:19;;;;;;;99.40;10.93;;;;;;;;;;4894750;29;20052;-93
2022/02/19 18:27:47;;;;;;;76.00;9.80;;;;;;;;;;4900487;29;20059;-93
2022/02/19 18:30:14;;;;;;;78.60;9.57;;;;;;;;;;4901882;29;20048;-93
2022/02/19 18:32:44;;;;;;;92.45;15.68;;;;;;;;;;4889918;29;20583;-94
2022/02/19 18:35:11;;;;;;;103.55;16.10;;;;;;;;;;4899033;29;20048;-88
2022/02/19 18:37:44;;;;;;;80.15;9.90;;;;;;;;;;4898018;29;20056;-90
2022/02/19 18:40:11;;;;;;;71.32;10.43;;;;;;;;;;4883964;29;20421;-88
2022/02/19 18:42:38;;;;;;;83.20;10.05;;;;;;;;;;4895729;29;20048;-86
2022/02/19 18:45:25;;;;;;;87.15;10.02;;;;;;;;;;4880229;29;20504;-86
2022/02/19 18:47:52;;;;;;;80.10;10.18;;;;;;;;;;4875209;29;20060;-89
2022/02/19 18:50:20;;;;;;;86.90;11.07;;;;;;;;;;4891754;29;20059;-88
2022/02/19 18:52:48;;;;;;;86.45;9.60;;;;;;;;;;4895231;29;20558;-88
2022/02/19 18:55:15;;;;;;;71.32;8.27;;;;;;;;;;4888872;29;20056;-87
2022/02/19 18:58:03;;;;;;;69.10;9.35;;;;;;;;;;4882187;29;20063;-89
2022/02/19 19:00:30;;;;;;;76.65;10.02;;;;;;;;;;4890591;29;20059;-88
2022/02/19 19:02:56;;;;;;;78.53;9.05;;;;;;;;;;4875354;29;20040;-88
2022/02/19 19:05:26;;;;;;;77.03;8.68;;;;;;;;;;4874343;29;20064;-92
2022/02/19 19:07:54;;;;;;;75.20;7.75;;;;;;;;;;4890341;29;20056;-87
2022/02/19 19:10:21;;;;;;;72.00;8.38;;;;;;;;;;4875903;29;20052;-88
2022/02/19 19:12:48;;;;;;;60.65;7.40;;;;;;;;;;4891164;29;20060;-87
2022/02/19 19:15:15;;;;;;;69.80;7.97;;;;;;;;;;4890965;29;20045;-88
2022/02/19 19:17:41;;;;;;;65.15;8.25;;;;;;;;;;4872396;29;20052;-88
2022/02/19 19:20:08;;;;;;;62.15;8.35;;;;;;;;;;4890037;29;20053;-89
2022/02/19 19:22:36;;;;;;;76.68;8.55;;;;;;;;;;4892358;29;20562;-89
2022/02/19 19:25:03;;;;;;;59.13;8.73;;;;;;;;;;4876329;29;20128;-88
2022/02/19 19:27:33;;;;;;;68.05;9.63;;;;;;;;;;4883787;29;20100;-87
2022/02/19 19:30:02;;;;;;;67.55;6.80;;;;;;;;;;4887346;29;20056;-86
2022/02/19 19:32:29;;;;;;;65.00;8.18;;;;;;;;;;4890143;29;20064;-88
2022/02/19 19:34:56;;;;;;;88.50;19.48;;;;;;;;;;4891422;29;20052;-88
2022/02/19 19:37:23;;;;;;;76.35;19.10;;;;;;;;;;4874864;29;20045;-90
2022/02/19 19:39:49;;;;;;;75.20;13.77;;;;;;;;;;4876213;29;20048;-90
2022/02/19 19:42:16;;;;;;;67.88;12.00;;;;;;;;;;4888625;29;20122;-90
2022/02/19 19:44:43;;;;;;;68.80;9.38;;;;;;;;;;4873865;29;20052;-91
2022/02/19 19:47:12;;;;;;;69.38;10.00;;;;;;;;;;4894876;29;20055;-89
2022/02/19 19:49:39;;;;;;;72.32;9.32;;;;;;;;;;4876704;29;20054;-88
2022/02/19 19:52:06;;;;;;;80.63;10.60;;;;;;;;;;4886321;29;20049;-89
2022/02/19 19:54:34;;;;;;;70.40;8.93;;;;;;;;;;4883339;29;20053;-89
2022/02/19 19:57:04;;;;;;;75.55;8.90;;;;;;;;;;4888826;29;20052;-89
2022/02/19 19:59:37;;;;;;;88.82;9.18;;;;;;;;;;4887246;29;20402;-89
2022/02/19 20:02:04;;;;;;;75.13;10.40;;;;;;;;;;4889014;29;20085;-90
2022/02/19 20:04:32;;;;;;;84.78;9.30;;;;;;;;;;4892005;29;20048;-89
2022/02/19 20:07:01;;;;;;;86.53;12.50;;;;;;;;;;4886129;29;20095;-89
2022/02/19 20:09:28;;;;;;;71.43;10.05;;;;;;;;;;4897215;29;20048;-90
2022/02/19 20:11:57;;;;;;;86.25;10.23;;;;;;;;;;4901964;29;20049;-91
2022/02/19 20:14:24;;;;;;;86.40;9.13;;;;;;;;;;4890572;29;21573;-91
2022/02/19 20:16:51;;;;;;;84.13;10.02;;;;;;;;;;4895391;29;20068;-91
2022/02/19 20:19:25;;;;;;;84.25;9.35;;;;;;;;;;4896805;29;20056;-91
2022/02/19 20:21:52;;;;;;;77.57;8.25;;;;;;;;;;4907115;29;20088;-91
2022/02/19 20:24:19;;;;;;;73.78;9.40;;;;;;;;;;4900906;29;20049;-93
2022/02/19 20:26:46;;;;;;;75.68;7.85;;;;;;;;;;4899424;29;20489;-91
2022/02/19 20:29:13;;;;;;;70.53;8.82;;;;;;;;;;4885900;29;20072;-92
2022/02/19 20:31:39;;;;;;;68.32;7.53;;;;;;;;;;4902264;29;20135;-93
2022/02/19 20:34:06;;;;;;;73.88;8.18;;;;;;;;;;4899079;29;20048;-90
2022/02/19 20:36:33;;;;;;;54.13;6.45;;;;;;;;;;4888863;29;20519;-90
2022/02/19 20:39:01;;;;;;;43.63;6.22;;;;;;;;;;4880908;29;20455;-90
2022/02/19 20:41:39;;;;;;;47.17;5.95;;;;;;;;;;4887761;29;20490;-93
2022/02/19 20:44:06;;;;;;;69.22;7.07;;;;;;;;;;4908051;29;20056;-90
2022/02/19 20:46:34;;;;;;;63.50;7.82;;;;;;;;;;4901346;29;20084;-90
2022/02/19 20:49:01;;;;;;;64.68;7.05;;;;;;;;;;4884539;29;20060;-90
2022/02/19 20:51:27;;;;;;;45.63;5.63;;;;;;;;;;4888016;29;20059;-88
2022/02/19 20:53:54;;;;;;;38.17;5.47;;;;;;;;;;4886664;29;20061;-90
2022/02/19 20:56:21;;;;;;;47.92;6.05;;;;;;;;;;4881906;29;20469;-87
2022/02/19 20:58:47;;;;;;;42.90;5.68;;;;;;;;;;4895322;29;20067;-90
2022/02/19 21:01:14;;;;;;;29.58;4.47;;;;;;;;;;4891264;29;20549;-90
2022/02/19 21:03:44;;;;;;;52.22;6.40;;;;;;;;;;4879766;29;20127;-90
2022/02/19 21:06:14;;;;;;;47.25;5.32;;;;;;;;;;4881102;29;20579;-88
2022/02/19 21:08:42;;;;;;;43.85;5.00;;;;;;;;;;4879643;29;20146;-87
2022/02/19 21:11:09;;;;;;;55.00;6.47;;;;;;;;;;4861903;29;20073;-88
2022/02/19 21:13:36;;;;;;;41.95;5.13;;;;;;;;;;4876944;29;20060;-90
2022/02/19 21:16:03;;;;;;;41.33;4.53;;;;;;;;;;4880388;29;20051;-89
2022/02/19 21:18:30;;;;;;;49.88;5.38;;;;;;;;;;4891442;29;20536;-87
2022/02/19 21:20:56;;;;;;;43.78;5.25;;;;;;;;;;4892307;29;20063;-87
2022/02/19 21:23:23;;;;;;;40.47;5.60;;;;;;;;;;4894319;29;20478;-88
2022/02/19 21:25:50;;;;;;;60.38;6.38;;;;;;;;;;4895273;29;20071;-87
2022/02/19 21:28:16;;;;;;;46.20;5.75;;;;;;;;;;4887400;29;20049;-87
2022/02/19 21:30:43;;;;;;;48.25;5.32;;;;;;;;;;4878803;29;20044;-88
2022/02/19 21:33:10;;;;;;;52.38;5.20;;;;;;;;;;4892111;29;20052;-87
2022/02/19 21:35:41;;;;;;;52.80;6.13;;;;;;;;;;4879940;29;20581;-87
2022/02/19 21:38:09;;;;;;;43.53;5.70;;;;;;;;;;4874926;29;20821;-89
2022/02/19 21:40:36;;;;;;;42.40;6.50;;;;;;;;;;4880774;29;20103;-89
2022/02/19 21:43:04;;;;;;;51.92;5.53;;;;;;;;;;4891222;29;20059;-87
2022/02/19 21:45:50;;;;;;;56.83;5.88;;;;;;;;;;4887783;29;20454;-87
2022/02/19 21:48:17;;;;;;;51.40;6.05;;;;;;;;;;4890222;29;20100;-90
2022/02/19 21:50:44;;;;;;;50.25;6.72;;;;;;;;;;4891721;29;20060;-85
2022/02/19 21:53:10;;;;;;;49.65;5.47;;;;;;;;;;4897551;29;20053;-89